Time;durP1;ratioP1;P1;durP2;ratioP2;P2;SDS_P1;SDS_P2;PMS_P1;PMS_P2;Temp;Humidity;BMP_temperature;BMP_pressure;BME280_temperature;BME280_humidity;BME280_pressure;Samples;Min_cycle;Max_cycle;Signal;HPM_P1;HPM_P2
2022/03/21 00:01:02;;;;;;;5.88;4.85;;;19.90;50.90;;;;;;4450718;32;20184;-81
2022/03/21 00:03:29;;;;;;;5.95;5.15;;;19.90;50.90;;;;;;4436811;32;20161;-81
2022/03/21 00:05:56;;;;;;;6.93;5.03;;;19.90;51.00;;;;;;4450524;32;20077;-81
2022/03/21 00:08:24;;;;;;;5.60;4.53;;;19.90;51.00;;;;;;4450467;32;20132;-80
2022/03/21 00:10:51;;;;;;;6.00;4.97;;;19.80;51.00;;;;;;4450516;32;20089;-81
2022/03/21 00:13:18;;;;;;;5.55;4.70;;;19.80;51.00;;;;;;4450477;32;20089;-79
2022/03/21 00:15:49;;;;;;;5.90;5.00;;;19.80;51.00;;;;;;4450549;32;20073;-81
2022/03/21 00:18:15;;;;;;;5.95;5.15;;;19.80;51.00;;;;;;4450329;32;20100;-80
2022/03/21 00:20:42;;;;;;;6.90;5.20;;;19.80;51.10;;;;;;4450655;32;20496;-81
2022/03/21 00:23:09;;;;;;;5.97;5.05;;;19.70;51.00;;;;;;4450415;32;20525;-81
2022/03/21 00:25:36;;;;;;;6.07;5.43;;;19.70;51.00;;;;;;4450336;32;20092;-81
2022/03/21 00:28:02;;;;;;;5.65;5.00;;;19.70;51.10;;;;;;4450312;32;20100;-81
2022/03/21 00:30:29;;;;;;;6.45;4.97;;;19.70;51.10;;;;;;4450471;32;20503;-80
2022/03/21 00:32:55;;;;;;;5.88;4.95;;;19.70;51.10;;;;;;4423600;32;20074;-81
2022/03/21 00:35:22;;;;;;;6.72;5.50;;;19.70;51.20;;;;;;4436152;32;20062;-78
2022/03/21 00:37:48;;;;;;;6.55;5.43;;;19.60;51.10;;;;;;4450705;32;20089;-81
2022/03/21 00:40:16;;;;;;;6.30;5.10;;;19.60;51.10;;;;;;4450060;32;20240;-80
2022/03/21 00:42:44;;;;;;;6.88;5.75;;;19.60;51.10;;;;;;4450422;32;20092;-81
2022/03/21 00:45:13;;;;;;;7.55;5.78;;;19.60;51.20;;;;;;4450678;32;20097;-81
2022/03/21 00:47:39;;;;;;;5.30;4.80;;;19.60;51.20;;;;;;4450330;32;20476;-81
2022/03/21 00:50:07;;;;;;;7.38;5.13;;;19.60;51.20;;;;;;4450429;32;20093;-80
2022/03/21 00:52:54;;;;;;;7.72;5.38;;;19.60;51.20;;;;;;4450151;32;20326;-81
2022/03/21 00:55:22;;;;;;;5.75;5.10;;;19.60;51.20;;;;;;4450522;32;20070;-81
2022/03/21 00:57:48;;;;;;;6.05;4.90;;;19.50;51.20;;;;;;4450114;32;20082;-80
2022/03/21 01:00:14;;;;;;;6.93;4.97;;;19.50;51.20;;;;;;4450363;32;20066;-81
2022/03/21 01:02:41;;;;;;;6.53;5.40;;;19.50;51.20;;;;;;4449858;32;20093;-81
2022/03/21 01:05:09;;;;;;;5.90;5.30;;;19.50;51.20;;;;;;4450172;32;20081;-81
2022/03/21 01:07:36;;;;;;;6.03;5.32;;;19.50;51.20;;;;;;4450063;32;20086;-81
2022/03/21 01:10:04;;;;;;;6.32;5.40;;;19.50;51.20;;;;;;4434108;32;20078;-81
2022/03/21 01:12:30;;;;;;;6.20;5.30;;;19.50;51.20;;;;;;4447664;32;20101;-81
2022/03/21 01:14:56;;;;;;;6.05;5.20;;;19.40;51.10;;;;;;4447575;32;20070;-81
2022/03/21 01:17:22;;;;;;;6.30;5.15;;;19.40;51.20;;;;;;4447332;32;20117;-80
2022/03/21 01:19:49;;;;;;;7.97;4.97;;;19.40;51.20;;;;;;4447273;32;20066;-80
2022/03/21 01:22:14;;;;;;;5.40;4.90;;;19.40;52.10;;;;;;4447504;32;20526;-81
2022/03/21 01:24:41;;;;;;;5.55;4.95;;;19.40;51.10;;;;;;4447460;32;20070;-81
2022/03/21 01:27:08;;;;;;;6.07;4.80;;;19.40;51.20;;;;;;4447763;32;20078;-81
2022/03/21 01:29:34;;;;;;;6.20;5.20;;;19.40;51.20;;;;;;4447098;32;20423;-81
2022/03/21 01:32:01;;;;;;;6.78;5.40;;;19.40;51.20;;;;;;4433457;32;20074;-81
2022/03/21 01:34:27;;;;;;;6.50;5.35;;;19.40;51.20;;;;;;4446958;32;20164;-72
2022/03/21 01:36:54;;;;;;;6.50;5.05;;;19.40;51.30;;;;;;4447414;32;20125;-81
2022/03/21 01:39:20;;;;;;;6.53;4.82;;;19.30;51.20;;;;;;4447173;32;20565;-81
2022/03/21 01:41:46;;;;;;;5.68;5.10;;;19.30;51.20;;;;;;4447225;32;20211;-81
2022/03/21 01:44:13;;;;;;;6.32;5.43;;;19.30;51.20;;;;;;4447151;32;20431;-81
2022/03/21 01:46:39;;;;;;;6.63;5.00;;;19.30;51.20;;;;;;4447010;32;20078;-79
2022/03/21 01:49:07;;;;;;;5.65;4.90;;;19.30;51.20;;;;;;4447185;32;20331;-81
2022/03/21 01:51:35;;;;;;;5.68;5.05;;;19.30;51.20;;;;;;4433314;32;20259;-81
2022/03/21 01:56:47;;;;;;;6.20;5.00;;;19.20;51.20;;;;;;4447283;32;20094;-81
2022/03/21 01:59:14;;;;;;;5.68;4.68;;;19.20;51.20;;;;;;4446899;32;20175;-80
2022/03/21 02:01:41;;;;;;;6.28;5.05;;;19.20;51.30;;;;;;4446984;32;20397;-81
2022/03/21 02:04:09;;;;;;;4.93;4.35;;;19.20;51.30;;;;;;4433122;32;20529;-81
2022/03/21 02:06:35;;;;;;;6.25;5.20;;;19.20;51.20;;;;;;4446858;32;20389;-81
2022/03/21 02:09:04;;;;;;;6.55;5.07;;;19.20;51.30;;;;;;4447015;32;20121;-81
2022/03/21 02:11:31;;;;;;;6.20;4.60;;;19.20;51.30;;;;;;4446738;32;20100;-80
2022/03/21 02:13:59;;;;;;;7.25;4.22;;;19.20;51.30;;;;;;4446895;32;20082;-80
2022/03/21 02:16:26;;;;;;;6.68;4.95;;;19.20;51.30;;;;;;4446803;32;20078;-80
2022/03/21 02:18:52;;;;;;;5.80;5.03;;;19.10;51.30;;;;;;4429972;32;20074;-81
2022/03/21 02:21:51;;;;;;;5.93;5.00;;;19.10;51.30;;;;;;4431291;32;20086;-80
2022/03/21 02:24:29;;;;;;;6.53;4.97;;;19.10;51.30;;;;;;4431761;32;20374;-81
2022/03/21 02:26:58;;;;;;;7.00;4.97;;;19.10;51.30;;;;;;4431384;32;20220;-80
2022/03/21 02:29:26;;;;;;;5.88;4.28;;;19.10;51.30;;;;;;4431132;32;20674;-80
2022/03/21 02:31:54;;;;;;;6.07;4.82;;;19.10;51.30;;;;;;4431234;32;20125;-81
2022/03/21 02:34:22;;;;;;;6.78;5.00;;;19.10;51.30;;;;;;4431014;32;20607;-80
2022/03/21 02:36:52;;;;;;;5.88;4.45;;;19.10;51.30;;;;;;4430607;32;20097;-81
2022/03/21 02:39:18;;;;;;;4.53;4.13;;;19.10;51.30;;;;;;4430608;32;20141;-81
2022/03/21 02:41:44;;;;;;;5.10;4.20;;;19.00;51.30;;;;;;4429527;32;20074;-81
2022/03/21 02:44:09;;;;;;;5.57;4.30;;;19.00;51.30;;;;;;4431124;32;20137;-80
2022/03/21 02:46:37;;;;;;;5.93;4.60;;;19.00;51.30;;;;;;4429578;32;20122;-81
2022/03/21 02:49:06;;;;;;;5.30;4.50;;;19.00;51.30;;;;;;4429909;32;20095;-81
2022/03/21 02:51:36;;;;;;;5.05;4.32;;;19.00;51.30;;;;;;4430883;32;20105;-81
2022/03/21 02:54:02;;;;;;;7.25;4.60;;;19.00;51.30;;;;;;4430896;32;20093;-80
2022/03/21 02:56:28;;;;;;;5.32;4.50;;;19.00;51.30;;;;;;4430642;32;20078;-81
2022/03/21 02:58:54;;;;;;;5.80;4.45;;;19.00;51.30;;;;;;4430702;32;20077;-81
2022/03/21 03:01:20;;;;;;;4.70;4.18;;;19.00;51.30;;;;;;4430622;32;20114;-80
2022/03/21 03:03:46;;;;;;;6.38;4.22;;;19.00;51.30;;;;;;4430726;32;20079;-81
2022/03/21 03:06:13;;;;;;;5.05;4.30;;;19.00;51.30;;;;;;4429570;32;20121;-80
2022/03/21 03:08:41;;;;;;;6.45;4.43;;;18.90;51.20;;;;;;4429265;32;20090;-77
2022/03/21 03:11:07;;;;;;;4.68;4.10;;;19.00;51.30;;;;;;4429352;32;20089;-80
2022/03/21 03:13:36;;;;;;;5.47;4.05;;;18.90;51.20;;;;;;4430572;32;20075;-81
2022/03/21 03:16:02;;;;;;;5.22;4.30;;;18.90;51.20;;;;;;4430744;32;20626;-80
2022/03/21 03:18:28;;;;;;;4.47;4.03;;;18.90;51.20;;;;;;4443033;32;20408;-81
2022/03/21 03:20:57;;;;;;;4.90;3.85;;;18.90;51.20;;;;;;4445547;32;20617;-81
2022/03/21 03:23:26;;;;;;;5.65;4.15;;;18.90;51.20;;;;;;4445862;32;20128;-81
2022/03/21 03:26:01;;;;;;;5.50;4.28;;;18.90;51.30;;;;;;4445601;32;20074;-80
2022/03/21 03:28:28;;;;;;;6.18;3.90;;;18.90;51.20;;;;;;4446015;32;20471;-80
2022/03/21 03:30:55;;;;;;;4.68;3.85;;;18.90;51.30;;;;;;4445489;32;20693;-81
2022/03/21 03:33:23;;;;;;;4.95;3.90;;;18.80;51.20;;;;;;4445153;32;20492;-80
2022/03/21 03:35:49;;;;;;;5.60;4.28;;;18.80;51.20;;;;;;4445303;32;20078;-81
2022/03/21 03:38:18;;;;;;;5.47;3.97;;;18.80;51.20;;;;;;4445046;32;20077;-81
2022/03/21 03:40:44;;;;;;;4.32;3.92;;;18.80;51.20;;;;;;4445742;32;20506;-81
2022/03/21 03:43:12;;;;;;;4.38;3.85;;;18.80;51.20;;;;;;4444962;32;20094;-80
2022/03/21 03:45:38;;;;;;;5.32;3.90;;;18.80;51.20;;;;;;4431067;32;20077;-81
2022/03/21 03:48:05;;;;;;;5.15;3.90;;;18.80;51.20;;;;;;4445266;32;20073;-76
2022/03/21 03:50:31;;;;;;;5.13;3.78;;;18.80;51.20;;;;;;4431744;32;20078;-81
2022/03/21 03:52:57;;;;;;;4.78;3.83;;;18.80;51.20;;;;;;4444215;32;20219;-81
2022/03/21 03:55:22;;;;;;;4.28;3.67;;;18.80;51.20;;;;;;4445496;32;20500;-80
2022/03/21 03:57:49;;;;;;;4.70;3.80;;;18.70;51.10;;;;;;4445148;32;20152;-81
2022/03/21 04:00:16;;;;;;;4.45;3.90;;;18.70;51.10;;;;;;4445153;32;20093;-81
2022/03/21 04:05:28;;;;;;;4.97;3.92;;;18.70;51.20;;;;;;4445074;32;20093;-80
2022/03/21 04:07:55;;;;;;;4.38;3.72;;;18.70;51.20;;;;;;4445196;32;20108;-81
2022/03/21 04:10:21;;;;;;;4.90;4.20;;;18.70;51.20;;;;;;4445065;32;20085;-78
2022/03/21 04:12:49;;;;;;;4.82;3.53;;;18.70;51.20;;;;;;4445319;32;20066;-81
2022/03/21 04:15:16;;;;;;;4.03;3.58;;;18.70;51.20;;;;;;4444807;32;20089;-81
2022/03/21 04:17:42;;;;;;;4.10;3.70;;;18.70;51.20;;;;;;4444687;32;20256;-80
2022/03/21 04:20:08;;;;;;;4.88;3.95;;;18.70;51.20;;;;;;4445217;32;20078;-81
2022/03/21 04:22:35;;;;;;;3.80;3.40;;;18.70;51.20;;;;;;4445108;32;20650;-81
2022/03/21 04:25:03;;;;;;;4.85;3.83;;;18.60;51.10;;;;;;4444693;32;20062;-81
2022/03/21 04:27:28;;;;;;;4.10;3.45;;;18.60;51.10;;;;;;4445157;32;20216;-81
2022/03/21 04:29:54;;;;;;;4.82;3.80;;;18.60;51.10;;;;;;4444907;32;20179;-81
2022/03/21 04:32:20;;;;;;;5.82;4.05;;;18.60;51.10;;;;;;4431163;32;20054;-81
2022/03/21 04:34:46;;;;;;;4.53;3.80;;;18.60;51.10;;;;;;4431319;32;20192;-80
2022/03/21 04:37:11;;;;;;;3.65;3.25;;;18.60;51.10;;;;;;4445134;32;20066;-80
2022/03/21 04:39:37;;;;;;;4.75;3.58;;;18.60;51.10;;;;;;4444910;32;20171;-81
2022/03/21 04:42:04;;;;;;;4.75;3.58;;;18.60;51.10;;;;;;4445067;32;20179;-80
2022/03/21 04:44:30;;;;;;;5.38;4.25;;;18.60;51.20;;;;;;4446106;32;20097;-80
2022/03/21 04:46:56;;;;;;;6.18;3.95;;;18.60;51.10;;;;;;4447809;32;20396;-81
2022/03/21 04:49:21;;;;;;;5.22;3.63;;;18.60;51.20;;;;;;4447871;32;20051;-80
2022/03/21 04:51:47;;;;;;;4.38;3.70;;;18.50;51.10;;;;;;4447905;32;20062;-81
2022/03/21 04:54:13;;;;;;;4.32;3.58;;;18.50;51.10;;;;;;4434172;32;20086;-81
2022/03/21 04:56:39;;;;;;;3.85;3.20;;;18.50;51.10;;;;;;4447926;32;20070;-81
2022/03/21 04:59:05;;;;;;;3.72;3.33;;;18.50;51.10;;;;;;4447919;32;20496;-81
2022/03/21 05:01:31;;;;;;;3.95;3.17;;;18.50;51.10;;;;;;4447955;32;20496;-81
2022/03/21 05:03:57;;;;;;;4.28;3.40;;;18.50;51.10;;;;;;4447689;32;20164;-81
2022/03/21 05:06:24;;;;;;;4.00;3.58;;;18.50;51.10;;;;;;4447984;32;20096;-80
2022/03/21 05:08:50;;;;;;;3.72;3.05;;;18.50;51.10;;;;;;4448085;32;20427;-80
2022/03/21 05:11:17;;;;;;;4.68;3.33;;;18.50;51.10;;;;;;4433865;32;20510;-81
2022/03/21 05:13:43;;;;;;;4.72;3.65;;;18.40;51.00;;;;;;4447528;32;20454;-81
2022/03/21 05:16:08;;;;;;;4.03;3.15;;;18.40;51.00;;;;;;4447494;32;20066;-81
2022/03/21 05:18:34;;;;;;;3.72;3.33;;;18.40;51.00;;;;;;4447453;32;20085;-80
2022/03/21 05:21:01;;;;;;;4.07;3.17;;;18.40;51.00;;;;;;4447439;32;20073;-81
2022/03/21 05:31:44;;;;;;;3.40;3.05;;;18.40;51.00;;;;;;4447726;32;20504;-81
2022/03/21 05:36:55;;;;;;;3.72;3.30;;;18.40;51.00;;;;;;4447540;32;20102;-79
2022/03/21 05:39:23;;;;;;;3.78;3.40;;;18.40;51.00;;;;;;4447437;32;20084;-81
2022/03/21 05:41:51;;;;;;;3.13;2.85;;;18.40;51.00;;;;;;4447568;32;20643;-81
2022/03/21 05:44:17;;;;;;;3.60;3.08;;;18.40;51.00;;;;;;4447584;32;20220;-80
2022/03/21 05:46:43;;;;;;;4.68;3.35;;;18.30;51.00;;;;;;4447285;32;20536;-81
2022/03/21 05:49:09;;;;;;;3.65;3.13;;;18.40;51.00;;;;;;4447503;32;20086;-81
2022/03/21 05:51:37;;;;;;;3.90;3.17;;;18.30;51.00;;;;;;4447396;32;20584;-81
2022/03/21 05:54:05;;;;;;;3.70;3.33;;;18.30;51.00;;;;;;4447132;32;20516;-81
2022/03/21 05:56:32;;;;;;;4.10;3.17;;;18.30;51.00;;;;;;4432493;32;20070;-81
2022/03/21 06:00:20;;;;;;;4.55;3.15;;;18.30;51.00;;;;;;4446859;32;20569;-81
2022/03/21 06:01:44;;;;;;;3.70;3.20;;;18.30;51.00;;;;;;4446649;32;20110;-80
2022/03/21 06:04:10;;;;;;;4.15;3.20;;;18.30;51.00;;;;;;4445746;32;20085;-81
2022/03/21 06:06:36;;;;;;;4.28;3.13;;;18.30;51.00;;;;;;4432859;32;20173;-81
2022/03/21 06:09:03;;;;;;;4.00;3.13;;;18.30;51.00;;;;;;4446681;32;20415;-81
2022/03/21 06:11:29;;;;;;;3.13;2.63;;;18.30;51.00;;;;;;4446360;32;20081;-81
2022/03/21 06:13:54;;;;;;;3.25;2.95;;;18.20;51.90;;;;;;4446673;32;20093;-81
2022/03/21 06:16:20;;;;;;;3.88;2.95;;;18.20;51.00;;;;;;4446684;32;20066;-81
2022/03/21 06:18:47;;;;;;;4.45;3.13;;;18.20;51.00;;;;;;4446356;32;20078;-81
2022/03/21 06:21:13;;;;;;;3.10;2.80;;;18.20;51.00;;;;;;4446463;32;20070;-80
2022/03/21 06:23:39;;;;;;;3.60;2.90;;;18.20;51.00;;;;;;4446520;32;20063;-81
2022/03/21 06:26:06;;;;;;;4.60;2.95;;;18.30;51.00;;;;;;4446638;32;20554;-81
2022/03/21 06:28:32;;;;;;;3.80;3.00;;;18.20;51.00;;;;;;4432338;32;20168;-80
2022/03/21 06:30:58;;;;;;;4.10;2.95;;;18.20;51.00;;;;;;4446789;32;20078;-80
2022/03/21 06:33:30;;;;;;;3.88;2.80;;;18.20;51.00;;;;;;4432579;32;20499;-80
2022/03/21 06:35:58;;;;;;;3.28;2.70;;;18.20;51.00;;;;;;4446493;32;20066;-81
2022/03/21 06:38:24;;;;;;;3.28;2.90;;;18.20;51.00;;;;;;4446309;32;20131;-80
2022/03/21 06:40:50;;;;;;;3.05;2.55;;;18.20;51.00;;;;;;4446095;32;20070;-81
2022/03/21 06:43:16;;;;;;;4.55;3.00;;;18.20;51.10;;;;;;4446086;32;20089;-80
2022/03/21 06:45:47;;;;;;;3.90;3.08;;;18.20;51.10;;;;;;4446354;32;20078;-81
2022/03/21 06:48:13;;;;;;;3.88;3.38;;;18.20;51.00;;;;;;4446507;32;20096;-81
2022/03/21 06:50:39;;;;;;;3.63;3.08;;;18.20;51.10;;;;;;4446599;32;20077;-81
2022/03/21 06:53:05;;;;;;;3.72;2.90;;;18.10;51.00;;;;;;4446030;32;20535;-80
2022/03/21 06:55:32;;;;;;;3.45;3.05;;;18.10;51.10;;;;;;4446601;32;20074;-80
2022/03/21 06:57:57;;;;;;;4.10;3.28;;;18.10;51.10;;;;;;4446029;32;20195;-80
2022/03/21 07:00:23;;;;;;;4.10;3.13;;;18.10;51.10;;;;;;4446276;32;20562;-80
2022/03/21 07:02:49;;;;;;;4.05;2.90;;;18.10;51.10;;;;;;4445932;32;20377;-81
2022/03/21 07:05:15;;;;;;;3.92;2.92;;;18.10;51.10;;;;;;4445422;32;20125;-78
2022/03/21 07:07:41;;;;;;;3.92;3.30;;;18.10;51.20;;;;;;4445156;32;20496;-76
2022/03/21 07:10:09;;;;;;;7.78;5.78;;;18.10;51.10;;;;;;4432154;32;20599;-78
2022/03/21 07:12:35;;;;;;;14.02;9.50;;;18.10;50.40;;;;;;4432130;32;20171;-77
2022/03/21 07:15:02;;;;;;;14.18;10.32;;;18.00;49.00;;;;;;4445975;32;20066;-78
2022/03/21 07:17:28;;;;;;;14.63;8.65;;;18.00;48.00;;;;;;4445711;32;20074;-80
2022/03/21 07:19:54;;;;;;;13.30;7.53;;;18.00;48.00;;;;;;4445944;32;20114;-80
2022/03/21 07:22:20;;;;;;;13.40;7.15;;;18.00;48.80;;;;;;4446091;32;20070;-79
2022/03/21 07:24:46;;;;;;;19.63;7.70;;;18.00;49.40;;;;;;4446174;32;20077;-81
2022/03/21 07:27:14;;;;;;;10.93;7.55;;;18.00;49.70;;;;;;4445732;32;20490;-80
2022/03/21 07:29:40;;;;;;;11.60;6.82;;;18.00;49.80;;;;;;4446049;32;20082;-80
2022/03/21 07:32:07;;;;;;;11.60;7.30;;;18.00;49.90;;;;;;4431477;32;20081;-80
2022/03/21 07:34:33;;;;;;;8.88;6.03;;;18.00;50.00;;;;;;4445672;32;20096;-79
2022/03/21 07:36:59;;;;;;;11.88;6.82;;;18.00;50.00;;;;;;4445616;32;20074;-81
2022/03/21 07:39:24;;;;;;;9.02;6.28;;;18.10;50.00;;;;;;4445472;32;20090;-81
2022/03/21 07:41:51;;;;;;;9.18;6.03;;;18.10;49.90;;;;;;4431810;32;20077;-81
2022/03/21 07:47:17;;;;;;;7.85;5.60;;;18.20;49.90;;;;;;4445773;32;20088;-81
2022/03/21 07:47:20;;;;;;;8.48;5.05;;;18.20;49.80;;;;;;4445311;32;20062;-81
2022/03/21 07:49:55;;;;;;;9.93;5.20;;;18.30;49.70;;;;;;4445721;32;20097;-81
2022/03/21 07:52:22;;;;;;;10.00;4.72;;;18.40;49.60;;;;;;4431653;32;20070;-80
2022/03/21 07:54:53;;;;;;;6.93;4.78;;;18.50;49.40;;;;;;4445584;32;20488;-81
2022/03/21 07:57:28;;;;;;;8.77;4.45;;;18.70;49.30;;;;;;4445420;32;20219;-78
2022/03/21 07:59:54;;;;;;;6.47;4.28;;;18.80;49.10;;;;;;4445491;32;20098;-79
2022/03/21 08:02:21;;;;;;;6.10;4.00;;;18.90;49.00;;;;;;4445164;32;20071;-79
2022/03/21 08:04:48;;;;;;;5.43;4.10;;;19.00;48.90;;;;;;4445224;32;20539;-81
2022/03/21 08:07:15;;;;;;;10.82;4.20;;;19.20;48.80;;;;;;4445171;32;20196;-79
2022/03/21 08:09:41;;;;;;;4.18;3.17;;;19.20;48.50;;;;;;4445230;32;20077;-79
2022/03/21 08:12:08;;;;;;;8.13;3.95;;;19.40;48.40;;;;;;4445271;32;20422;-79
2022/03/21 08:14:35;;;;;;;6.43;3.83;;;19.50;48.20;;;;;;4445004;32;20165;-76
2022/03/21 08:17:03;;;;;;;7.95;3.50;;;19.60;48.00;;;;;;4445218;32;20089;-81
2022/03/21 08:19:29;;;;;;;5.28;3.28;;;19.70;47.70;;;;;;4445973;32;20098;-79
2022/03/21 08:21:55;;;;;;;5.38;3.53;;;19.90;47.60;;;;;;4434380;32;20097;-82
2022/03/21 08:24:24;;;;;;;7.05;3.17;;;20.00;47.40;;;;;;4434368;32;20228;-80
2022/03/21 08:26:50;;;;;;;6.93;3.20;;;20.10;47.20;;;;;;4448538;32;20078;-82
2022/03/21 08:29:16;;;;;;;6.13;3.67;;;20.20;46.90;;;;;;4448514;32;20192;-82
2022/03/21 08:31:42;;;;;;;6.20;3.50;;;20.30;46.70;;;;;;4448448;32;20070;-82
2022/03/21 08:34:09;;;;;;;4.35;3.35;;;20.40;46.60;;;;;;4448292;32;20492;-82
2022/03/21 08:36:35;;;;;;;7.40;3.38;;;20.50;46.50;;;;;;4448345;32;20118;-81
2022/03/21 08:39:01;;;;;;;6.18;3.55;;;20.50;46.40;;;;;;4448184;32;20090;-82
2022/03/21 08:41:27;;;;;;;12.18;4.05;;;20.60;46.40;;;;;;4448242;32;20085;-82
2022/03/21 08:43:54;;;;;;;5.50;3.28;;;20.50;47.00;;;;;;4448074;32;20228;-82
2022/03/21 08:46:21;;;;;;;7.18;3.30;;;20.50;47.30;;;;;;4448022;32;20086;-82
2022/03/21 08:51:33;;;;;;;4.43;3.10;;;20.40;47.80;;;;;;4448225;32;20649;-78
2022/03/21 08:53:59;;;;;;;8.00;3.60;;;20.30;48.30;;;;;;4448006;32;20573;-80
2022/03/21 08:56:27;;;;;;;9.55;3.25;;;20.20;48.60;;;;;;4448047;32;20082;-79
2022/03/21 08:58:53;;;;;;;5.32;3.40;;;20.20;48.90;;;;;;4434225;32;20081;-81
2022/03/21 09:01:18;;;;;;;6.32;3.08;;;20.10;49.00;;;;;;4448125;32;20113;-80
2022/03/21 09:03:44;;;;;;;6.97;3.30;;;20.10;49.30;;;;;;4448102;32;20086;-80
2022/03/21 09:06:10;;;;;;;7.40;3.15;;;20.00;49.40;;;;;;4447963;32;20087;-81
2022/03/21 09:08:37;;;;;;;6.68;3.60;;;20.00;49.60;;;;;;4447705;32;20078;-80
2022/03/21 09:11:04;;;;;;;7.57;3.10;;;19.90;49.70;;;;;;4447707;32;20140;-81
2022/03/21 09:13:31;;;;;;;6.22;3.13;;;19.90;49.90;;;;;;4433872;32;20215;-78
2022/03/21 09:15:57;;;;;;;7.97;2.95;;;19.90;50.00;;;;;;4447639;32;20407;-79
2022/03/21 09:18:23;;;;;;;8.00;3.50;;;19.80;50.10;;;;;;4447231;32;20085;-81
2022/03/21 09:20:49;;;;;;;5.70;3.38;;;19.70;50.20;;;;;;4447635;32;20077;-82
2022/03/21 09:23:15;;;;;;;4.50;3.53;;;19.70;50.40;;;;;;4447321;32;20090;-81
2022/03/21 09:25:40;;;;;;;7.00;3.55;;;19.70;50.60;;;;;;4447719;32;20598;-78
2022/03/21 09:28:07;;;;;;;8.05;3.38;;;19.70;50.80;;;;;;4447159;32;20483;-80
2022/03/21 09:30:33;;;;;;;4.43;3.25;;;19.60;50.90;;;;;;4446764;32;20078;-78
2022/03/21 09:32:59;;;;;;;10.50;3.28;;;19.60;50.90;;;;;;4447121;32;20488;-78
2022/03/21 09:35:28;;;;;;;6.30;4.53;;;19.60;50.90;;;;;;4447438;32;20387;-80
2022/03/21 09:37:54;;;;;;;10.98;5.55;;;19.50;50.90;;;;;;4447284;32;20109;-79
2022/03/21 09:40:20;;;;;;;8.55;5.15;;;19.50;50.80;;;;;;4433232;32;20471;-81
2022/03/21 09:42:47;;;;;;;7.63;4.90;;;19.50;50.80;;;;;;4447243;32;20211;-80
2022/03/21 09:45:13;;;;;;;7.80;4.72;;;19.50;50.70;;;;;;4447209;32;20164;-81
2022/03/21 09:50:33;;;;;;;7.30;4.55;;;19.40;50.70;;;;;;4447225;32;20077;-79
2022/03/21 09:53:00;;;;;;;6.28;4.43;;;19.40;50.80;;;;;;4447090;32;20216;-78
2022/03/21 09:55:26;;;;;;;12.73;4.53;;;19.40;50.80;;;;;;4446918;32;20081;-80
2022/03/21 09:57:52;;;;;;;8.75;4.80;;;19.30;50.80;;;;;;4432958;32;20078;-79
2022/03/21 10:00:18;;;;;;;6.68;4.45;;;19.30;50.90;;;;;;4447308;32;20500;-79
2022/03/21 10:02:44;;;;;;;8.38;4.63;;;19.30;51.00;;;;;;4446823;32;20074;-80
2022/03/21 10:05:34;;;;;;;6.47;4.55;;;19.30;51.00;;;;;;4447069;32;20505;-80
2022/03/21 10:08:21;;;;;;;7.72;4.22;;;19.20;51.00;;;;;;4446713;32;20156;-80
2022/03/21 10:11:01;;;;;;;8.20;4.45;;;19.20;51.00;;;;;;4446856;32;20377;-81
2022/03/21 10:13:35;;;;;;;9.05;4.18;;;19.20;51.10;;;;;;4446527;32;20093;-80
2022/03/21 10:16:20;;;;;;;7.10;4.80;;;19.20;51.20;;;;;;4446836;32;20204;-80
2022/03/21 10:18:52;;;;;;;6.35;4.25;;;19.20;51.10;;;;;;4446556;32;20084;-81
2022/03/21 10:21:18;;;;;;;8.85;4.25;;;19.20;51.20;;;;;;4446640;32;20508;-81
2022/03/21 10:23:44;;;;;;;7.85;4.78;;;19.10;51.20;;;;;;4446637;32;20313;-80
2022/03/21 10:26:24;;;;;;;8.50;4.93;;;19.10;51.20;;;;;;4432587;32;20090;-81
2022/03/21 10:28:53;;;;;;;9.60;4.32;;;19.10;51.20;;;;;;4446300;32;20171;-81
2022/03/21 10:31:47;;;;;;;8.65;4.00;;;19.10;51.30;;;;;;4446317;32;20078;-81
2022/03/21 10:34:17;;;;;;;7.22;4.13;;;19.10;51.30;;;;;;4446639;32;20244;-80
2022/03/21 10:37:11;;;;;;;5.38;3.95;;;19.10;51.30;;;;;;4446236;32;20089;-80
2022/03/21 10:39:39;;;;;;;;;;;19.00;51.20;;;;;;4446977;32;20089;-79
2022/03/21 10:42:10;;;;;;;9.15;4.28;;;19.00;51.30;;;;;;4446221;32;20116;-80
2022/03/21 10:44:37;;;;;;;6.88;3.90;;;19.00;51.30;;;;;;4446175;32;20086;-81
2022/03/21 10:47:05;;;;;;;6.85;3.90;;;19.00;51.30;;;;;;4445789;32;20086;-81
2022/03/21 10:49:38;;;;;;;6.60;3.75;;;19.00;51.30;;;;;;4446040;32;20098;-81
2022/03/21 10:52:06;;;;;;;7.57;4.40;;;18.90;51.20;;;;;;4446102;32;20159;-80
2022/03/21 10:54:36;;;;;;;5.13;3.60;;;19.00;51.20;;;;;;4446203;32;20085;-81
2022/03/21 10:57:04;;;;;;;3.92;3.38;;;18.90;51.10;;;;;;4446015;32;20078;-78
2022/03/21 10:59:31;;;;;;;7.53;3.90;;;19.00;51.20;;;;;;4445779;32;20188;-80
2022/03/21 11:02:17;;;;;;;6.05;3.60;;;19.00;51.20;;;;;;4445797;32;20078;-68
2022/03/21 11:04:44;;;;;;;6.20;3.50;;;19.00;51.10;;;;;;4446053;32;20094;-78
2022/03/21 11:07:11;;;;;;;10.07;7.43;;;18.90;50.90;;;;;;4446146;32;20160;-78
2022/03/21 11:09:39;;;;;;;10.85;8.57;;;18.90;49.30;;;;;;4446137;32;20088;-79
2022/03/21 11:12:07;;;;;;;12.90;9.13;;;18.90;47.40;;;;;;4446432;32;20137;-79
2022/03/21 11:14:39;;;;;;;18.70;10.98;;;18.80;46.00;;;;;;4446167;32;20523;-79
2022/03/21 11:17:07;;;;;;;14.82;9.57;;;18.80;44.30;;;;;;4446102;32;20431;-79
2022/03/21 11:19:34;;;;;;;14.88;9.60;;;18.80;44.20;;;;;;4446009;32;20088;-79
2022/03/21 11:22:00;;;;;;;14.10;10.05;;;18.80;43.70;;;;;;4445566;32;20093;-78
2022/03/21 11:24:28;;;;;;;17.35;11.68;;;18.80;43.10;;;;;;4445397;32;20480;-80
2022/03/21 11:27:19;;;;;;;17.27;11.35;;;18.80;42.10;;;;;;4445746;32;20109;-73
2022/03/21 11:30:06;;;;;;;15.93;11.30;;;18.70;40.50;;;;;;4431943;32;20407;-77
2022/03/21 11:32:50;;;;;;;16.00;11.50;;;18.70;41.20;;;;;;4445999;32;20157;-81
2022/03/21 11:35:28;;;;;;;14.20;10.63;;;18.70;41.50;;;;;;4445799;32;20082;-82
2022/03/21 11:37:57;;;;;;;15.90;11.38;;;18.70;41.60;;;;;;4445664;32;20109;-80
2022/03/21 11:40:32;;;;;;;14.23;10.65;;;18.70;41.60;;;;;;4445344;32;20077;-79
2022/03/21 11:43:19;;;;;;;15.73;11.90;;;18.70;41.50;;;;;;4445744;32;20077;-80
2022/03/21 11:45:55;;;;;;;17.67;11.85;;;18.70;40.60;;;;;;4445353;32;20124;-77
2022/03/21 11:48:23;;;;;;;14.95;11.48;;;18.70;41.30;;;;;;4445452;32;20665;-79
2022/03/21 11:51:10;;;;;;;17.77;12.13;;;18.70;41.00;;;;;;4445092;32;20188;-79
2022/03/21 11:53:45;;;;;;;17.38;12.57;;;18.70;40.80;;;;;;4445487;32;20091;-77
2022/03/21 11:56:16;;;;;;;16.58;11.75;;;18.60;40.30;;;;;;4445832;32;20082;-81
2022/03/21 11:58:46;;;;;;;15.30;11.95;;;18.70;40.50;;;;;;4445170;32;20236;-79
2022/03/21 12:01:18;;;;;;;23.48;13.50;;;18.60;40.50;;;;;;4445387;32;20479;-79
2022/03/21 12:03:45;;;;;;;;;;;18.60;40.30;;;;;;4433210;32;20598;-78
2022/03/21 12:06:20;;;;;;;17.27;12.63;;;18.60;39.50;;;;;;4445251;32;19975;-78
2022/03/21 12:09:06;;;;;;;18.73;13.38;;;18.60;39.50;;;;;;4445400;32;20208;-82
2022/03/21 12:11:38;;;;;;;15.85;13.10;;;18.60;38.80;;;;;;4437275;32;20105;-81
2022/03/21 12:14:22;;;;;;;17.98;13.15;;;18.60;39.10;;;;;;4445230;32;20184;-81
2022/03/21 12:17:00;;;;;;;;;;;18.60;38.90;;;;;;4446183;32;20104;-81
2022/03/21 12:19:48;;;;;;;19.13;13.27;;;18.60;38.60;;;;;;4445885;32;19974;-79
2022/03/21 12:22:29;;;;;;;16.52;12.55;;;18.60;38.60;;;;;;4445546;32;20667;-79
2022/03/21 12:24:56;;;;;;;18.23;13.60;;;18.60;38.60;;;;;;4445234;32;20121;-78
2022/03/21 12:27:58;;;;;;;17.08;12.90;;;18.50;39.10;;;;;;4445486;32;20100;-78
2022/03/21 12:30:27;;;;;;;18.05;12.85;;;18.50;38.60;;;;;;4445663;32;20127;-78
2022/03/21 12:32:58;;;;;;;17.42;13.40;;;18.50;39.20;;;;;;4445473;32;20216;-78
2022/03/21 12:35:35;;;;;;;18.63;13.05;;;18.50;39.00;;;;;;4445353;32;20074;-78
2022/03/21 12:38:04;;;;;;;19.77;14.00;;;18.50;38.40;;;;;;4444996;32;20184;-79
2022/03/21 12:40:32;;;;;;;17.17;13.13;;;18.50;38.80;;;;;;4445131;32;20093;-79
2022/03/21 12:43:00;;;;;;;18.55;13.82;;;18.50;38.60;;;;;;4445199;32;20527;-79
2022/03/21 12:45:26;;;;;;;20.20;13.98;;;18.50;38.50;;;;;;4445470;32;20086;-77
2022/03/21 12:47:58;;;;;;;17.80;13.40;;;18.50;38.60;;;;;;4445214;32;20074;-78
2022/03/21 12:50:25;;;;;;;19.58;13.63;;;18.50;38.70;;;;;;4445141;32;20491;-78
2022/03/21 12:53:04;;;;;;;19.17;12.88;;;18.50;38.70;;;;;;4445424;32;20085;-79
2022/03/21 12:55:30;;;;;;;14.68;11.75;;;18.50;38.60;;;;;;4445362;32;20085;-78
2022/03/21 12:58:00;;;;;;;16.88;12.80;;;18.50;38.70;;;;;;4445364;32;20086;-78
2022/03/21 13:00:31;;;;;;;17.08;12.13;;;18.50;38.90;;;;;;4445390;32;20093;-77
2022/03/21 13:03:06;;;;;;;18.48;12.50;;;18.50;38.90;;;;;;4444964;32;20078;-79
2022/03/21 13:11:31;;;;;;;20.50;11.60;;;18.50;39.00;;;;;;4448192;32;20124;-80
2022/03/21 13:14:14;;;;;;;17.92;10.77;;;18.50;38.90;;;;;;4448161;32;20070;-79
2022/03/21 13:16:56;;;;;;;14.30;10.07;;;18.50;39.30;;;;;;4447329;32;20085;-75
2022/03/21 13:19:26;;;;;;;16.45;10.82;;;18.50;39.40;;;;;;4447045;32;20093;-77